ADDS TAF Data INFO
IDs: Format: Raw Decoded Include METARs

Data at: 1317 UTC 25 Feb 2018

KMAF 251253Z 00000KT 10SM CLR M01/M12 A3002 RMK AO2 SLP154 T10111122

KMAF 251120Z 2512/2612 22008KT P6SM SKC
  FM251700 26014G22KT P6SM SKC
  FM260000 33008KT P6SM SKC